Time;durP1;ratioP1;P1;durP2;ratioP2;P2;SDS_P1;SDS_P2;PMS_P1;PMS_P2;Temp;Humidity;BMP_temperature;BMP_pressure;BME280_temperature;BME280_humidity;BME280_pressure;Samples;Min_cycle;Max_cycle;Signal;HPM_P1;HPM_P2
2021/12/07 00:01:57;;;;;;;20.35;10.95;;;2.40;99.90;;;;;;4878524;29;20482;-77
2021/12/07 00:04:25;;;;;;;22.00;11.68;;;2.30;99.90;;;;;;4862195;29;20140;-77
2021/12/07 00:06:51;;;;;;;20.52;10.48;;;2.30;99.90;;;;;;4878122;29;20050;-74
2021/12/07 00:09:18;;;;;;;21.92;10.82;;;2.60;99.90;;;;;;4879044;29;20068;-77
2021/12/07 00:11:46;;;;;;;20.42;10.20;;;2.30;99.90;;;;;;4879086;29;20048;-77
2021/12/07 00:14:13;;;;;;;20.35;10.45;;;2.20;99.90;;;;;;4878994;29;20056;-75
2021/12/07 00:16:44;;;;;;;23.73;11.38;;;3.20;99.90;;;;;;4878404;29;20049;-76
2021/12/07 00:19:11;;;;;;;22.25;11.15;;;3.60;99.90;;;;;;4878639;29;20053;-76
2021/12/07 00:21:39;;;;;;;22.10;11.02;;;2.10;99.90;;;;;;4878901;29;20037;-75
2021/12/07 00:24:06;;;;;;;21.33;11.55;;;2.10;99.90;;;;;;4862201;29;20497;-75
2021/12/07 00:26:32;;;;;;;21.20;10.82;;;3.00;99.90;;;;;;4862194;29;20041;-75
2021/12/07 00:28:59;;;;;;;21.48;10.80;;;2.10;99.90;;;;;;4878719;29;20191;-75
2021/12/07 00:31:34;;;;;;;23.52;12.05;;;2.00;99.90;;;;;;4878339;29;20053;-75
2021/12/07 00:34:13;;;;;;;22.90;11.00;;;2.00;99.90;;;;;;4877413;29;20505;-75
2021/12/07 00:36:44;;;;;;;22.58;11.05;;;1.90;99.90;;;;;;4877504;29;20127;-75
2021/12/07 00:39:11;;;;;;;22.42;11.30;;;1.80;99.90;;;;;;4863208;29;20061;-75
2021/12/07 00:41:37;;;;;;;21.35;10.30;;;1.80;99.90;;;;;;4880532;29;20053;-75
2021/12/07 00:44:05;;;;;;;20.75;10.85;;;1.70;99.90;;;;;;4881774;29;20048;-74
2021/12/07 00:46:32;;;;;;;24.77;12.07;;;2.00;99.90;;;;;;4865214;29;20077;-75
2021/12/07 00:48:58;;;;;;;22.45;11.05;;;1.60;99.90;;;;;;4881633;29;20140;-76
2021/12/07 00:51:24;;;;;;;25.77;11.65;;;1.50;99.90;;;;;;4882044;29;20072;-74
2021/12/07 00:53:50;;;;;;;23.30;11.68;;;1.50;99.90;;;;;;4881932;29;20387;-73
2021/12/07 00:56:16;;;;;;;24.50;12.15;;;1.40;99.90;;;;;;4865071;29;20065;-74
2021/12/07 00:58:42;;;;;;;23.08;11.52;;;1.70;99.90;;;;;;4881737;29;20060;-73
2021/12/07 01:01:11;;;;;;;25.35;12.63;;;1.40;99.90;;;;;;4864729;29;20052;-75
2021/12/07 01:03:38;;;;;;;30.88;13.20;;;1.30;99.90;;;;;;4879998;29;20057;-75
2021/12/07 01:09:32;;;;;;;26.23;13.18;;;1.30;99.90;;;;;;4860893;29;20152;-75
2021/12/07 01:25:47;;;;;;;21.67;8.45;;;1.10;99.90;;;;;;4845177;29;20113;-74
2021/12/07 01:28:36;;;;;;;20.67;9.30;;;2.20;99.90;;;;;;4845386;29;20459;-75
2021/12/07 01:36:22;;;;;;;17.27;7.15;;;2.00;99.90;;;;;;4845308;29;19934;-75
2021/12/07 01:47:16;;;;;;;20.48;8.25;;;0.90;99.90;;;;;;4881062;29;20049;-75
2021/12/07 02:00:25;;;;;;;21.90;9.68;;;0.80;99.90;;;;;;4880877;29;20057;-75
2021/12/07 02:02:51;;;;;;;22.10;8.15;;;0.80;99.90;;;;;;4880660;29;20127;-75
2021/12/07 02:05:16;;;;;;;21.13;7.30;;;0.80;99.90;;;;;;4848465;29;20093;-74
2021/12/07 02:07:42;;;;;;;21.27;8.05;;;1.30;99.90;;;;;;4880160;29;20073;-75
2021/12/07 02:10:14;;;;;;;19.52;8.48;;;0.80;99.90;;;;;;4880383;29;20482;-75
2021/12/07 02:12:46;;;;;;;18.35;7.53;;;0.70;99.90;;;;;;4880364;29;20490;-73
2021/12/07 02:15:15;;;;;;;16.15;6.80;;;0.70;99.90;;;;;;4880465;29;20042;-75
2021/12/07 02:17:41;;;;;;;17.23;7.10;;;0.70;99.90;;;;;;4879410;29;20517;-74
2021/12/07 02:20:09;;;;;;;18.02;8.10;;;0.60;99.90;;;;;;4879386;29;20095;-75
2021/12/07 02:22:35;;;;;;;26.00;8.88;;;0.60;99.90;;;;;;4862899;29;20060;-75
2021/12/07 02:25:03;;;;;;;19.75;8.35;;;0.60;99.90;;;;;;4880123;29;20136;-74
2021/12/07 02:27:28;;;;;;;20.95;7.60;;;0.50;99.90;;;;;;4863411;29;20135;-74
2021/12/07 02:29:54;;;;;;;19.50;8.60;;;0.50;99.90;;;;;;4880292;29;20140;-75
2021/12/07 02:32:20;;;;;;;20.77;8.18;;;0.50;99.90;;;;;;4879107;29;20055;-75
2021/12/07 02:34:54;;;;;;;23.38;9.32;;;0.40;99.90;;;;;;4879951;29;20036;-75
2021/12/07 02:37:29;;;;;;;23.30;9.38;;;0.40;99.90;;;;;;4879827;29;20049;-75
2021/12/07 02:39:56;;;;;;;20.70;7.50;;;0.40;99.90;;;;;;4863108;29;20497;-76
2021/12/07 02:42:24;;;;;;;19.02;8.00;;;0.40;99.90;;;;;;4863490;29;20071;-75
2021/12/07 02:44:49;;;;;;;22.35;8.25;;;0.30;99.90;;;;;;4879914;29;20061;-75
2021/12/07 02:47:16;;;;;;;20.73;7.90;;;0.30;99.90;;;;;;4878600;29;20053;-74
2021/12/07 02:49:43;;;;;;;21.10;8.85;;;0.30;99.90;;;;;;4862924;29;20128;-75
2021/12/07 02:52:09;;;;;;;24.17;7.80;;;0.30;99.90;;;;;;4879856;29;20482;-77
2021/12/07 02:54:39;;;;;;;18.60;8.25;;;0.30;99.90;;;;;;4862613;29;20131;-74
2021/12/07 02:57:08;;;;;;;19.02;7.05;;;0.30;99.90;;;;;;4879804;29;20068;-78
2021/12/07 02:59:34;;;;;;;20.05;7.90;;;0.30;99.90;;;;;;4878828;29;20148;-76
2021/12/07 03:02:06;;;;;;;20.25;8.30;;;0.30;99.90;;;;;;4862673;29;20057;-75
2021/12/07 03:04:41;;;;;;;;;;;0.20;99.90;;;;;;4879985;29;20059;-75
2021/12/07 03:07:40;;;;;;;21.80;8.43;;;0.30;99.90;;;;;;4863277;29;20303;-75
2021/12/07 03:26:29;;;;;;;20.83;8.05;;;0.30;99.90;;;;;;4879229;29;20088;-75
2021/12/07 03:28:57;;;;;;;19.85;8.05;;;0.40;99.90;;;;;;4862529;29;20049;-75
2021/12/07 03:31:26;;;;;;;18.75;7.95;;;0.40;99.90;;;;;;4862832;29;20111;-75
2021/12/07 03:33:53;;;;;;;20.45;7.88;;;0.40;99.90;;;;;;4877996;29;20128;-75
2021/12/07 03:36:20;;;;;;;18.27;7.47;;;0.40;99.90;;;;;;4878036;29;20136;-74
2021/12/07 03:38:46;;;;;;;21.30;7.70;;;0.40;99.90;;;;;;4877884;29;20084;-76
2021/12/07 03:41:12;;;;;;;18.58;8.20;;;0.40;99.90;;;;;;4878899;29;20045;-75
2021/12/07 03:43:40;;;;;;;21.02;9.02;;;0.50;99.90;;;;;;4878020;29;20049;-75
2021/12/07 03:46:07;;;;;;;20.85;8.23;;;0.40;99.90;;;;;;4878791;29;20063;-75
2021/12/07 03:48:33;;;;;;;22.73;9.90;;;0.40;99.90;;;;;;4879181;29;20136;-75
2021/12/07 03:50:59;;;;;;;19.58;9.02;;;0.50;99.90;;;;;;4878263;29;20057;-75
2021/12/07 03:53:27;;;;;;;18.10;7.32;;;0.50;99.90;;;;;;4877911;29;20049;-74
2021/12/07 03:55:54;;;;;;;20.02;8.35;;;0.50;99.90;;;;;;4879387;29;20053;-74
2021/12/07 03:58:20;;;;;;;18.50;7.82;;;0.50;99.90;;;;;;4878657;29;20060;-75
2021/12/07 04:00:47;;;;;;;20.48;7.97;;;0.50;99.90;;;;;;4878914;29;20041;-72
2021/12/07 04:03:14;;;;;;;19.15;8.70;;;0.60;99.90;;;;;;4862426;29;20053;-75
2021/12/07 04:05:47;;;;;;;16.25;7.60;;;0.50;99.90;;;;;;4879002;29;20037;-74
2021/12/07 04:08:19;;;;;;;20.35;7.97;;;0.60;99.90;;;;;;4877951;29;20097;-75
2021/12/07 04:10:45;;;;;;;18.63;7.05;;;0.50;99.90;;;;;;4878972;29;20053;-73
2021/12/07 04:13:11;;;;;;;17.33;7.93;;;0.60;99.90;;;;;;4877455;29;20041;-74
2021/12/07 04:15:37;;;;;;;17.88;7.70;;;0.60;99.90;;;;;;4881187;29;20053;-75
2021/12/07 04:18:04;;;;;;;16.55;7.20;;;0.60;99.90;;;;;;4881534;29;20055;-74
2021/12/07 04:20:30;;;;;;;17.38;6.18;;;0.60;99.90;;;;;;4882468;29;20052;-74
2021/12/07 04:22:56;;;;;;;17.90;8.00;;;0.70;99.90;;;;;;4882369;29;20077;-74
2021/12/07 04:25:23;;;;;;;17.67;7.30;;;0.70;99.90;;;;;;4865777;29;20053;-74
2021/12/07 04:27:51;;;;;;;17.52;6.85;;;0.70;99.90;;;;;;4865691;29;20077;-75
2021/12/07 04:30:21;;;;;;;22.40;8.35;;;0.80;99.90;;;;;;4880843;29;20057;-72
2021/12/07 04:32:47;;;;;;;17.15;7.15;;;0.80;99.90;;;;;;4865530;29;20120;-74
2021/12/07 04:35:13;;;;;;;17.02;7.72;;;0.80;99.90;;;;;;4880926;29;20129;-74
2021/12/07 04:37:40;;;;;;;20.55;7.13;;;0.80;99.90;;;;;;4881000;29;20097;-75
2021/12/07 04:40:09;;;;;;;20.45;7.43;;;0.80;99.90;;;;;;4880744;29;20147;-75
2021/12/07 04:42:34;;;;;;;15.93;6.13;;;0.80;99.90;;;;;;4865042;29;20063;-75
2021/12/07 04:45:04;;;;;;;20.10;6.95;;;0.80;99.90;;;;;;4877346;29;20057;-71
2021/12/07 04:47:43;;;;;;;14.40;6.15;;;0.90;99.90;;;;;;4863473;29;20045;-74
2021/12/07 04:58:33;;;;;;;20.92;8.00;;;0.90;99.90;;;;;;4824283;29;20054;-73
2021/12/07 05:01:00;;;;;;;16.63;7.15;;;0.90;99.90;;;;;;4839450;29;20046;-74
2021/12/07 05:03:28;;;;;;;19.05;7.82;;;0.90;99.90;;;;;;4839521;29;20057;-75
2021/12/07 05:05:54;;;;;;;20.10;8.43;;;0.90;99.90;;;;;;4824328;29;20054;-73
2021/12/07 05:08:39;;;;;;;21.42;7.40;;;0.90;99.90;;;;;;4824116;29;20164;-74
2021/12/07 05:13:51;;;;;;;19.58;7.63;;;0.90;99.90;;;;;;4824319;29;20049;-75
2021/12/07 05:16:46;;;;;;;21.05;8.15;;;0.90;99.90;;;;;;4823596;29;20088;-73
2021/12/07 05:23:54;;;;;;;22.05;8.13;;;0.90;99.90;;;;;;4839700;29;20090;-74
2021/12/07 05:38:31;;;;;;;19.55;6.95;;;0.80;99.90;;;;;;4823739;29;20137;-75
2021/12/07 05:40:57;;;;;;;19.88;7.40;;;0.80;99.90;;;;;;4808599;29;20046;-74
2021/12/07 05:43:23;;;;;;;20.13;7.50;;;0.80;99.90;;;;;;4823881;29;20065;-75
2021/12/07 05:45:48;;;;;;;20.75;7.75;;;0.70;99.90;;;;;;4793180;29;20050;-73
2021/12/07 05:48:14;;;;;;;18.52;7.78;;;0.70;99.90;;;;;;4823127;29;20192;-83
2021/12/07 05:50:41;;;;;;;21.85;7.70;;;0.70;99.90;;;;;;4808516;29;20061;-75
2021/12/07 05:53:09;;;;;;;20.27;7.72;;;0.60;99.90;;;;;;4823462;29;20125;-74
2021/12/07 05:55:36;;;;;;;20.65;7.50;;;1.80;99.90;;;;;;4808926;29;20065;-76
2021/12/07 05:58:03;;;;;;;22.70;8.38;;;0.50;99.90;;;;;;4823635;29;20057;-74
2021/12/07 06:00:32;;;;;;;21.45;8.50;;;0.50;99.90;;;;;;4824500;29;20078;-75
2021/12/07 06:03:00;;;;;;;18.92;8.15;;;0.40;99.90;;;;;;4823057;29;20050;-75
2021/12/07 06:05:28;;;;;;;22.20;9.15;;;0.40;99.90;;;;;;4856525;29;20074;-75
2021/12/07 06:07:54;;;;;;;19.88;8.40;;;0.40;99.90;;;;;;4861899;29;20501;-75
2021/12/07 06:10:20;;;;;;;22.02;8.82;;;1.50;99.90;;;;;;4861873;29;20045;-74
2021/12/07 06:12:45;;;;;;;17.00;7.82;;;0.40;99.90;;;;;;4862143;29;20046;-74
2021/12/07 06:15:13;;;;;;;22.33;8.25;;;0.30;99.90;;;;;;4860142;29;20067;-74
2021/12/07 06:17:39;;;;;;;18.23;7.90;;;1.20;99.90;;;;;;4855760;29;20464;-72
2021/12/07 06:20:06;;;;;;;20.63;8.38;;;0.30;99.90;;;;;;4863817;29;20043;-75
2021/12/07 06:22:32;;;;;;;19.23;8.63;;;0.30;99.90;;;;;;4861768;29;20054;-74
2021/12/07 06:24:57;;;;;;;20.40;8.25;;;0.30;99.90;;;;;;4859237;29;20506;-72
2021/12/07 06:27:23;;;;;;;20.30;8.05;;;0.40;99.90;;;;;;4861098;29;20091;-74
2021/12/07 06:29:49;;;;;;;21.02;8.40;;;0.40;99.90;;;;;;4859439;29;20148;-71
2021/12/07 06:32:15;;;;;;;18.92;7.90;;;0.40;99.90;;;;;;4861274;29;20037;-72
2021/12/07 06:34:40;;;;;;;21.30;7.80;;;0.40;99.90;;;;;;4859393;29;20056;-72
2021/12/07 06:37:06;;;;;;;20.00;8.60;;;0.50;99.90;;;;;;4859649;29;20414;-72
2021/12/07 06:39:33;;;;;;;19.67;7.22;;;0.50;99.90;;;;;;4860770;29;20105;-72
2021/12/07 06:41:59;;;;;;;19.40;7.95;;;0.50;99.90;;;;;;4860695;29;20057;-71
2021/12/07 06:44:25;;;;;;;24.20;10.75;;;0.50;99.90;;;;;;4860772;29;20118;-71
2021/12/07 06:46:51;;;;;;;27.17;11.90;;;0.50;99.90;;;;;;4859370;29;20501;-73
2021/12/07 06:49:19;;;;;;;24.85;10.73;;;0.50;99.90;;;;;;4874671;29;20565;-71
2021/12/07 06:51:45;;;;;;;21.85;9.45;;;1.50;99.90;;;;;;4859975;29;20124;-75
2021/12/07 06:54:11;;;;;;;21.55;8.70;;;0.40;99.90;;;;;;4860527;29;20041;-73
2021/12/07 06:56:37;;;;;;;22.42;10.02;;;0.40;99.90;;;;;;4860443;29;20049;-73
2021/12/07 06:59:04;;;;;;;21.40;9.48;;;0.40;99.90;;;;;;4860586;29;20045;-74
2021/12/07 07:01:30;;;;;;;23.65;9.70;;;0.40;99.90;;;;;;4860518;29;20144;-73
2021/12/07 07:03:56;;;;;;;19.25;9.27;;;0.40;99.90;;;;;;4860157;29;20102;-73
2021/12/07 07:06:21;;;;;;;23.05;9.57;;;0.30;99.90;;;;;;4859178;29;20124;-73
2021/12/07 07:08:50;;;;;;;23.10;9.85;;;0.30;99.90;;;;;;4859603;29;20062;-71
2021/12/07 07:11:19;;;;;;;20.45;8.82;;;0.30;99.90;;;;;;4844170;29;20079;-74
2021/12/07 07:13:46;;;;;;;24.13;9.98;;;0.30;99.90;;;;;;4861131;29;20109;-74
2021/12/07 07:16:12;;;;;;;23.65;10.95;;;0.30;99.90;;;;;;4861125;29;20447;-75
2021/12/07 07:18:39;;;;;;;21.30;9.18;;;0.30;99.90;;;;;;4859109;29;20079;-72
2021/12/07 07:21:06;;;;;;;21.92;9.68;;;0.30;99.90;;;;;;4859661;29;20063;-73
2021/12/07 07:23:33;;;;;;;22.67;10.38;;;1.20;99.90;;;;;;4860247;29;20049;-73
2021/12/07 07:25:58;;;;;;;23.52;10.20;;;0.20;99.90;;;;;;4859530;29;20041;-71
2021/12/07 07:28:26;;;;;;;23.83;10.38;;;0.20;99.90;;;;;;4858194;29;20057;-71
2021/12/07 07:30:52;;;;;;;22.35;9.95;;;0.20;99.90;;;;;;4859947;29;20053;-71
2021/12/07 07:33:17;;;;;;;28.05;10.48;;;0.20;99.90;;;;;;4860150;29;20041;-71
2021/12/07 07:35:43;;;;;;;20.38;9.20;;;0.20;99.90;;;;;;4858855;29;20065;-71
2021/12/07 07:38:09;;;;;;;23.67;8.95;;;0.20;99.90;;;;;;4859897;29;20045;-71
2021/12/07 07:40:35;;;;;;;19.75;9.13;;;0.20;99.90;;;;;;4859962;29;20426;-72
2021/12/07 07:43:00;;;;;;;22.05;10.05;;;0.20;99.90;;;;;;4860211;29;20517;-73
2021/12/07 07:45:26;;;;;;;19.52;9.18;;;0.20;99.90;;;;;;4857995;29;20064;-72
2021/12/07 07:47:52;;;;;;;20.58;8.95;;;0.20;99.90;;;;;;4860317;29;20510;-73
2021/12/07 07:50:18;;;;;;;24.88;11.68;;;0.30;99.90;;;;;;4862578;29;20064;-75
2021/12/07 07:52:44;;;;;;;25.33;11.13;;;0.30;99.90;;;;;;4862870;29;20045;-74
2021/12/07 07:55:11;;;;;;;22.40;11.23;;;0.40;99.90;;;;;;4863454;29;20410;-71
2021/12/07 07:57:38;;;;;;;28.70;11.70;;;0.50;99.90;;;;;;4863581;29;20088;-74
2021/12/07 08:00:08;;;;;;;22.80;11.15;;;0.60;99.90;;;;;;4877857;29;20109;-73
2021/12/07 08:02:34;;;;;;;30.25;12.13;;;0.60;99.90;;;;;;4862129;29;20607;-69
2021/12/07 08:05:00;;;;;;;25.88;11.05;;;0.70;99.90;;;;;;4863788;29;20053;-72
2021/12/07 08:07:25;;;;;;;22.90;10.63;;;0.70;99.90;;;;;;4863636;29;20084;-73
2021/12/07 08:09:51;;;;;;;24.17;11.75;;;0.80;99.90;;;;;;4862860;29;20049;-72
2021/12/07 08:12:17;;;;;;;27.17;10.63;;;0.80;99.90;;;;;;4863897;29;20050;-72
2021/12/07 08:14:43;;;;;;;30.30;12.63;;;0.90;99.90;;;;;;4877513;29;20439;-72
2021/12/07 08:17:09;;;;;;;26.08;11.65;;;1.00;99.90;;;;;;4863533;29;20041;-72
2021/12/07 08:19:36;;;;;;;22.48;9.85;;;1.00;99.90;;;;;;4863276;29;20119;-73
2021/12/07 08:22:02;;;;;;;30.35;11.13;;;1.00;99.90;;;;;;4863309;29;20053;-72
2021/12/07 08:24:28;;;;;;;25.42;11.70;;;1.00;99.90;;;;;;4863830;29;20054;-73
2021/12/07 08:26:53;;;;;;;27.10;11.30;;;1.00;99.90;;;;;;4863765;29;20045;-72
2021/12/07 08:29:19;;;;;;;25.48;10.35;;;1.00;99.90;;;;;;4862453;29;20049;-72
2021/12/07 08:31:45;;;;;;;25.27;10.88;;;1.00;99.90;;;;;;4877952;29;20057;-72
2021/12/07 08:34:10;;;;;;;24.73;10.90;;;1.80;99.90;;;;;;4862416;29;20053;-72
2021/12/07 08:36:36;;;;;;;24.17;10.60;;;1.00;99.90;;;;;;4852855;29;20061;-70
2021/12/07 08:39:04;;;;;;;23.05;10.45;;;1.60;99.90;;;;;;4855338;29;20053;-71
2021/12/07 08:41:29;;;;;;;23.65;10.60;;;1.00;99.90;;;;;;4853951;29;20054;-72
2021/12/07 08:43:56;;;;;;;29.95;11.70;;;1.80;99.90;;;;;;4857791;29;20056;-76
2021/12/07 08:46:22;;;;;;;27.10;11.13;;;1.00;99.90;;;;;;4857454;29;20112;-73
2021/12/07 08:48:47;;;;;;;23.38;10.07;;;1.00;99.90;;;;;;4860553;29;20451;-72
2021/12/07 08:51:15;;;;;;;24.23;10.60;;;1.00;99.90;;;;;;4860409;29;20049;-74
2021/12/07 08:53:49;;;;;;;25.70;10.35;;;1.10;99.90;;;;;;4859787;29;20140;-74
2021/12/07 09:01:43;;;;;;;22.42;9.57;;;1.00;99.90;;;;;;4871203;29;20054;-75
2021/12/07 09:04:10;;;;;;;24.45;10.07;;;1.20;99.90;;;;;;4859067;29;20152;-74
2021/12/07 09:06:38;;;;;;;23.48;9.35;;;1.10;99.90;;;;;;4859050;29;20053;-72
2021/12/07 09:09:04;;;;;;;20.75;9.40;;;1.10;99.90;;;;;;4860568;29;20084;-74
2021/12/07 09:11:30;;;;;;;27.55;9.80;;;1.20;99.90;;;;;;4860639;29;20128;-75
2021/12/07 09:13:55;;;;;;;27.02;9.73;;;1.20;99.90;;;;;;4860182;29;20136;-73
2021/12/07 09:16:22;;;;;;;21.17;10.38;;;1.30;99.90;;;;;;4859295;29;20049;-74
2021/12/07 09:18:47;;;;;;;27.17;10.85;;;1.30;99.90;;;;;;4859739;29;20700;-76
2021/12/07 09:21:15;;;;;;;21.80;8.85;;;1.30;99.90;;;;;;4858223;29;20100;-75
2021/12/07 09:23:41;;;;;;;19.77;9.18;;;1.40;99.90;;;;;;4859213;29;20057;-72
2021/12/07 09:26:08;;;;;;;23.45;9.32;;;1.40;99.90;;;;;;4858896;29;20056;-75
2021/12/07 09:28:33;;;;;;;20.63;9.30;;;2.40;99.90;;;;;;4859355;29;20414;-74
2021/12/07 09:30:59;;;;;;;23.77;9.73;;;1.80;99.90;;;;;;4856246;29;20041;-76
2021/12/07 09:33:27;;;;;;;21.25;8.82;;;1.60;99.90;;;;;;4873880;29;20473;-73
2021/12/07 09:35:53;;;;;;;21.67;9.07;;;1.60;99.90;;;;;;4858428;29;20061;-75
2021/12/07 09:38:20;;;;;;;18.98;8.90;;;2.60;99.90;;;;;;4871447;29;20050;-73
2021/12/07 09:40:46;;;;;;;24.63;9.48;;;1.70;99.90;;;;;;4860116;29;20120;-73
2021/12/07 09:43:13;;;;;;;24.35;9.82;;;1.80;99.90;;;;;;4859058;29;20046;-76
2021/12/07 09:45:40;;;;;;;22.15;9.38;;;1.90;99.90;;;;;;4854477;29;20466;-75
2021/12/07 09:48:09;;;;;;;24.15;8.50;;;1.90;99.90;;;;;;4866334;29;20435;-77
2021/12/07 09:50:36;;;;;;;19.02;9.15;;;2.00;99.90;;;;;;4877957;29;20067;-74
2021/12/07 09:53:06;;;;;;;21.88;8.88;;;2.90;99.90;;;;;;4878047;29;20048;-73
2021/12/07 09:55:33;;;;;;;23.63;9.70;;;2.10;99.90;;;;;;4876885;29;20057;-71
2021/12/07 09:57:59;;;;;;;20.60;9.45;;;2.90;99.90;;;;;;4877599;29;20049;-74
2021/12/07 10:00:25;;;;;;;25.83;10.18;;;2.20;99.90;;;;;;4873771;29;20057;-71
2021/12/07 10:02:52;;;;;;;24.58;9.48;;;3.10;99.90;;;;;;4877908;29;20052;-69
2021/12/07 10:05:19;;;;;;;26.20;9.13;;;2.30;99.90;;;;;;4876519;29;20421;-72
2021/12/07 10:07:50;;;;;;;16.05;8.25;;;2.40;99.90;;;;;;4859538;29;20516;-72
2021/12/07 10:10:31;;;;;;;22.58;9.15;;;2.40;99.90;;;;;;4878152;29;20045;-75
2021/12/07 10:12:58;;;;;;;20.92;8.52;;;2.40;99.90;;;;;;4860665;29;20049;-75
2021/12/07 10:15:24;;;;;;;22.10;8.75;;;2.40;99.90;;;;;;4858305;29;20042;-74
2021/12/07 10:17:59;;;;;;;20.40;8.68;;;2.50;99.90;;;;;;4859768;29;20076;-77
2021/12/07 10:20:42;;;;;;;22.90;8.32;;;2.50;99.90;;;;;;4861090;29;20052;-71
2021/12/07 10:23:14;;;;;;;23.33;9.38;;;2.60;99.90;;;;;;4877877;29;20157;-72
2021/12/07 10:25:44;;;;;;;21.95;8.30;;;2.60;99.90;;;;;;4875645;29;20052;-72
2021/12/07 10:28:28;;;;;;;20.25;8.93;;;2.70;99.90;;;;;;4868183;29;20048;-75
2021/12/07 10:30:56;;;;;;;19.20;6.93;;;2.70;99.90;;;;;;4873507;29;20595;-76
2021/12/07 10:33:34;;;;;;;18.00;7.30;;;3.00;99.90;;;;;;4873426;29;20056;-76
2021/12/07 10:36:11;;;;;;;20.80;7.82;;;2.90;99.90;;;;;;4875638;29;20135;-74
2021/12/07 10:38:38;;;;;;;18.08;7.95;;;3.00;99.90;;;;;;4877288;29;20085;-78
2021/12/07 10:41:12;;;;;;;21.98;8.18;;;3.00;99.90;;;;;;4877683;29;20057;-77
2021/12/07 10:43:50;;;;;;;20.33;8.52;;;3.00;99.90;;;;;;4876158;29;20069;-77
2021/12/07 10:46:39;;;;;;;24.77;8.20;;;3.10;99.90;;;;;;4875909;29;20064;-76
2021/12/07 10:49:28;;;;;;;22.88;7.22;;;3.20;99.90;;;;;;4861173;29;20057;-76
2021/12/07 10:52:11;;;;;;;18.95;7.18;;;3.30;99.90;;;;;;4877526;29;20053;-78
2021/12/07 10:54:58;;;;;;;22.77;7.57;;;3.40;99.90;;;;;;4876942;29;20057;-76
2021/12/07 10:57:25;;;;;;;23.13;6.95;;;3.40;99.90;;;;;;4860641;29;20106;-78
2021/12/07 10:59:54;;;;;;;21.27;7.85;;;3.50;99.90;;;;;;4875510;29;20061;-79
2021/12/07 11:02:21;;;;;;;18.13;7.07;;;3.60;99.90;;;;;;4860490;29;20040;-77
2021/12/07 11:04:48;;;;;;;16.55;6.63;;;3.60;99.90;;;;;;4860564;29;20073;-75
2021/12/07 11:07:21;;;;;;;18.52;7.40;;;3.60;99.90;;;;;;4858720;29;20503;-78
2021/12/07 11:10:08;;;;;;;19.55;6.88;;;3.70;99.90;;;;;;4873139;29;20438;-80
2021/12/07 11:13:34;;;;;;;15.10;6.50;;;4.40;99.90;;;;;;4877199;29;20056;-78
2021/12/07 11:15:33;;;;;;;18.65;5.93;;;3.70;99.90;;;;;;4869836;29;20057;-79
2021/12/07 11:18:09;;;;;;;17.55;6.70;;;3.80;99.90;;;;;;4876337;29;20052;-79
2021/12/07 11:20:36;;;;;;;16.40;6.40;;;4.00;99.90;;;;;;4875790;29;20056;-80
2021/12/07 11:23:16;;;;;;;18.42;7.80;;;3.90;99.90;;;;;;4876616;29;20410;-80
2021/12/07 11:31:15;;;;;;;17.40;5.80;;;4.00;99.90;;;;;;4871081;29;20057;-79
2021/12/07 11:33:41;;;;;;;19.30;6.65;;;4.10;99.90;;;;;;4876728;29;20033;-78
2021/12/07 11:36:24;;;;;;;18.52;6.68;;;4.50;99.90;;;;;;4875244;29;20052;-77
2021/12/07 11:38:51;;;;;;;20.98;6.30;;;4.20;99.90;;;;;;4858106;29;20037;-79
2021/12/07 11:41:24;;;;;;;16.98;6.75;;;4.20;99.90;;;;;;4859404;29;20053;-76
2021/12/07 11:43:56;;;;;;;24.75;6.75;;;4.20;99.90;;;;;;4859257;29;20057;-81
2021/12/07 11:46:23;;;;;;;18.52;5.53;;;4.20;99.90;;;;;;4855576;29;20137;-78
2021/12/07 11:49:02;;;;;;;18.13;6.13;;;4.30;99.90;;;;;;4841223;29;20049;-80
2021/12/07 11:51:27;;;;;;;14.73;5.50;;;4.30;99.90;;;;;;4857305;29;20057;-77
2021/12/07 11:53:53;;;;;;;15.60;5.97;;;4.60;99.90;;;;;;4858078;29;20052;-78
2021/12/07 11:56:19;;;;;;;21.58;6.40;;;4.40;99.90;;;;;;4853808;29;20378;-78
2021/12/07 11:58:45;;;;;;;17.58;6.40;;;4.50;99.90;;;;;;4861774;29;20572;-79
2021/12/07 12:01:10;;;;;;;15.73;6.05;;;4.50;99.90;;;;;;4853423;29;20124;-78
2021/12/07 12:03:36;;;;;;;15.70;5.10;;;4.60;99.90;;;;;;4872457;29;20459;-79
2021/12/07 12:06:02;;;;;;;12.95;4.82;;;4.60;99.90;;;;;;4856541;29;20041;-80
2021/12/07 12:08:28;;;;;;;17.05;5.07;;;5.00;99.90;;;;;;4857252;29;20049;-77
2021/12/07 12:11:13;;;;;;;17.70;4.63;;;4.70;99.90;;;;;;4856746;29;20136;-77
2021/12/07 12:14:23;;;;;;;11.60;4.28;;;4.80;99.90;;;;;;4858636;29;20521;-76
2021/12/07 12:17:00;;;;;;;13.60;4.63;;;5.10;99.90;;;;;;4838564;29;20205;-77
2021/12/07 12:19:47;;;;;;;11.35;4.90;;;6.20;99.90;;;;;;4857400;29;20495;-77
2021/12/07 12:22:38;;;;;;;13.45;4.15;;;4.90;99.90;;;;;;4857742;29;20053;-79
2021/12/07 12:25:12;;;;;;;10.52;3.30;;;4.90;99.90;;;;;;4857879;29;20081;-79
2021/12/07 12:27:39;;;;;;;17.98;5.88;;;4.90;99.90;;;;;;4856589;29;20120;-78
2021/12/07 12:30:30;;;;;;;15.02;4.22;;;5.00;99.90;;;;;;4857172;29;20092;-76
2021/12/07 12:32:59;;;;;;;15.90;5.20;;;5.10;99.90;;;;;;4878496;23;20050;-79
2021/12/07 12:35:30;;;;;;;11.35;4.55;;;5.10;99.90;;;;;;4824485;29;20054;-78
2021/12/07 12:37:56;;;;;;;19.10;4.32;;;5.10;99.90;;;;;;4841347;29;20148;-77
2021/12/07 12:40:29;;;;;;;11.20;4.47;;;5.10;99.90;;;;;;4843105;29;20046;-80
2021/12/07 12:42:57;;;;;;;14.00;4.57;;;5.70;99.90;;;;;;4827752;29;20050;-80
2021/12/07 12:45:29;;;;;;;12.10;3.88;;;5.00;99.90;;;;;;4842416;29;20050;-80
2021/12/07 12:48:02;;;;;;;12.05;4.28;;;5.00;99.90;;;;;;4846295;24;20422;-76
2021/12/07 12:50:46;;;;;;;11.38;4.05;;;5.50;99.90;;;;;;4860529;29;20136;-77
2021/12/07 12:53:16;;;;;;;12.60;4.00;;;4.90;99.90;;;;;;4853533;29;20057;-78
2021/12/07 12:55:44;;;;;;;11.80;3.83;;;4.90;99.90;;;;;;4858282;29;20040;-74
2021/12/07 12:58:14;;;;;;;15.38;4.72;;;4.90;99.90;;;;;;4860557;29;20049;-79
2021/12/07 13:01:08;;;;;;;13.45;3.88;;;4.80;99.90;;;;;;4861370;29;20077;-77
2021/12/07 13:04:02;;;;;;;13.20;4.05;;;4.80;99.90;;;;;;4860979;29;20404;-80
2021/12/07 13:06:31;;;;;;;14.00;4.18;;;4.80;99.90;;;;;;4857968;29;20520;-78
2021/12/07 13:09:22;;;;;;;12.30;4.07;;;5.70;99.90;;;;;;4857989;29;20149;-79
2021/12/07 13:12:08;;;;;;;10.63;4.40;;;4.80;99.90;;;;;;4858426;29;20120;-80
2021/12/07 13:14:38;;;;;;;12.32;5.45;;;4.80;99.90;;;;;;4844504;29;20085;-78
2021/12/07 13:17:24;;;;;;;12.75;4.80;;;4.80;99.90;;;;;;4858217;29;20049;-81
2021/12/07 13:20:08;;;;;;;13.73;4.63;;;4.80;99.90;;;;;;4859313;29;20049;-80
2021/12/07 13:22:55;;;;;;;13.40;5.07;;;4.80;99.90;;;;;;4860486;29;20513;-79
2021/12/07 13:25:44;;;;;;;12.48;4.72;;;4.80;99.90;;;;;;4859955;29;20136;-78
2021/12/07 13:28:18;;;;;;;16.45;4.78;;;4.80;99.90;;;;;;4859119;29;20050;-79
2021/12/07 13:30:55;;;;;;;14.50;4.53;;;4.70;99.90;;;;;;4860487;29;20068;-81
2021/12/07 13:33:23;;;;;;;15.75;4.97;;;4.70;99.90;;;;;;4860212;29;20049;-80
2021/12/07 13:35:52;;;;;;;13.00;4.40;;;4.70;99.90;;;;;;4857216;29;20507;-81
2021/12/07 13:38:28;;;;;;;12.50;5.22;;;4.70;99.90;;;;;;4843549;29;20065;-79
2021/12/07 13:41:13;;;;;;;16.52;5.90;;;4.70;99.90;;;;;;4857068;29;20044;-79
2021/12/07 13:43:42;;;;;;;12.40;5.05;;;4.60;99.90;;;;;;4856136;29;20045;-76
2021/12/07 13:46:16;;;;;;;17.95;6.13;;;5.90;99.90;;;;;;4858025;29;20089;-79
2021/12/07 13:48:44;;;;;;;11.52;5.15;;;4.60;99.90;;;;;;4857752;29;20090;-79
2021/12/07 13:51:14;;;;;;;12.45;5.28;;;4.60;99.90;;;;;;4859322;29;20053;-78
2021/12/07 13:53:42;;;;;;;13.45;4.80;;;4.60;99.90;;;;;;4860166;29;20053;-80
2021/12/07 13:56:08;;;;;;;16.75;5.20;;;4.60;99.90;;;;;;4858369;29;20045;-78
2021/12/07 13:58:59;;;;;;;15.73;5.00;;;4.80;99.90;;;;;;4859287;29;20056;-81
2021/12/07 14:01:28;;;;;;;11.38;4.70;;;4.60;99.90;;;;;;4859795;29;20109;-80
2021/12/07 14:03:56;;;;;;;27.77;6.85;;;4.60;99.90;;;;;;4858726;29;20049;-79
2021/12/07 14:06:22;;;;;;;14.02;4.70;;;4.60;99.90;;;;;;4858912;29;20049;-79
2021/12/07 14:08:49;;;;;;;14.52;5.20;;;4.50;99.90;;;;;;4857764;29;20493;-79
2021/12/07 14:11:17;;;;;;;12.63;4.78;;;4.50;99.90;;;;;;4859473;29;20050;-79
2021/12/07 14:13:45;;;;;;;14.65;5.45;;;4.50;99.90;;;;;;4856328;29;20038;-79
2021/12/07 14:16:13;;;;;;;13.38;4.68;;;4.40;99.90;;;;;;4858342;29;20049;-79
2021/12/07 14:18:42;;;;;;;12.93;5.18;;;4.90;99.90;;;;;;4859849;29;20050;-80
2021/12/07 14:21:08;;;;;;;18.10;6.20;;;5.30;99.90;;;;;;4859099;29;20049;-78
2021/12/07 14:23:37;;;;;;;12.50;5.05;;;4.30;99.90;;;;;;4859730;29;20041;-78
2021/12/07 14:26:09;;;;;;;14.98;5.07;;;4.30;99.90;;;;;;4857577;29;20053;-79
2021/12/07 14:28:47;;;;;;;17.45;4.85;;;4.30;99.90;;;;;;4859492;29;20049;-78
2021/12/07 14:31:22;;;;;;;14.63;5.57;;;4.20;99.90;;;;;;4859327;29;20450;-79
2021/12/07 14:33:49;;;;;;;16.13;5.10;;;4.20;99.90;;;;;;4859852;29;20101;-79
2021/12/07 14:36:25;;;;;;;14.30;5.63;;;4.10;99.90;;;;;;4841631;29;20072;-79